Terminal Aerodrome Forecast
Issued by NWS

Home | Current Version | Previous Version | Text Only | Print | Product List | Glossary Off
Versions: 1 2 3 4 5 6 7 8 9 10 11 12 13 14 15 16

000
FTUS43 KGRB 192334
TAFRHI
TAF
KRHI 192334Z 2000/2024 18010G17KT P6SM VCSH OVC045 WS016/20035KT
     FM200300 20008KT P6SM SCT045 BKN200 WS016/23035KT
     FM200600 VRB03KT P6SM BKN200
     FM200900 VRB03KT 6SM BR BKN012
      TEMPO 2010/2014 3SM BR BKN007
     FM201500 35008KT P6SM BKN100
     FM202200 33004KT P6SM BKN150=

USA.gov is the U.S. government's official web portal to all federal, state and local government web resources and services.